Alban, Wisconsin
Current Conditions -  °F | °C
As of 3:15 AM on Sunday 21 Dec 2014 (Local Time) from KSTE Reporting Station
Haze Haze  
Wind Chill: 22°   Ceiling: 700
Heat Index: 27°   Visibility: 4mi
Dew Point: 26°   Wind: 5mph
Humidity: 94%   Direction: 140°SE
Pressure: 30.13"   Gusts: NA
Location:  44.6794°N, 89.3392°W
Report Text: KSTE 210915Z AUTO 14004KT 4SM BR OVC007 M03/M03 A3013 RMK AO2 T10261035
Loading
Personal Weather Stations






























Interactive Weather Map New forecast layout! Learn more

10-Day Weather Forecast

Advertisements
Track Severe Weather on mobile